Terminal Aerodrome Forecast
Issued by NWS Wilmington, OH

Current Version | Previous Version | Graphics & Text | Print | Product List | Glossary On
Versions: 1 2 3 4 5 6 7 8 9 10 11 12 13 14 15 16 17 18 19 20 21 22 23 24 25 26 27 28 29 30 31 32 33 34 35 36 37 38 39
000
FTUS41 KILN 191800 AAA
TAFCVG
TAF AMD
KCVG 191803Z 1918/2024 12016G24KT 4SM -RA BR BKN012 BKN035 OVC045
     FM192000 17012G24KT 4SM -SHRA OVC012
     FM192300 21012G20KT P6SM VCSH OVC020
     FM200900 18012KT P6SM VCSH OVC015
     FM201500 23014G26KT P6SM VCSH OVC025=

USA.gov is the U.S. government's official web portal to all federal, state and local government web resources and services.